Time;durP1;ratioP1;P1;durP2;ratioP2;P2;SDS_P1;SDS_P2;PMS_P1;PMS_P2;Temp;Humidity;BMP_temperature;BMP_pressure;BME280_temperature;BME280_humidity;BME280_pressure;Samples;Min_cycle;Max_cycle;Signal;HPM_P1;HPM_P2
2022/01/21 00:01:26;;;;;;;7.53;2.62;;;;;;;-0.49;78.30;100491.05;2831752;84;21007;-73
2022/01/21 00:05:27;;;;;;;7.67;3.77;;;;;;;-0.49;78.86;100494.53;2883307;82;20998;-73
2022/01/21 00:09:29;;;;;;;4.53;2.50;;;;;;;-0.44;78.88;100495.23;2869445;83;20975;-73
2022/01/21 00:13:34;;;;;;;7.50;2.42;;;;;;;-0.53;78.82;100481.17;2917779;81;21003;-73
2022/01/21 00:17:36;;;;;;;6.40;3.27;;;;;;;-0.45;78.63;100496.14;2883455;82;20990;-73
2022/01/21 00:30:26;;;;;;;3.70;2.60;;;;;;;-0.51;78.67;100501.58;2869442;83;21007;-74
2022/01/21 00:34:28;;;;;;;4.00;2.00;;;;;;;-0.64;78.72;100507.66;2832186;84;20999;-73
2022/01/21 00:38:44;;;;;;;2.77;2.20;;;;;;;-0.73;79.08;100515.33;2883497;82;20966;-73
2022/01/21 00:43:12;;;;;;;7.13;3.57;;;;;;;-0.81;78.81;100522.52;2869761;83;21471;-74
2022/01/21 00:47:22;;;;;;;7.25;2.87;;;;;;;-0.82;78.77;100522.13;2917928;81;20984;-73
2022/01/21 00:51:24;;;;;;;6.80;4.12;;;;;;;-0.74;78.23;100526.68;2883549;82;21018;-73
2022/01/21 00:55:26;;;;;;;7.70;2.60;;;;;;;-0.77;77.87;100532.00;2832249;84;20995;-73
2022/01/21 00:59:41;;;;;;;2.70;1.72;;;;;;;-0.74;77.96;100533.65;2883778;82;20966;-73
2022/01/21 01:03:43;;;;;;;3.87;2.10;;;;;;;-0.79;78.06;100549.45;2869668;83;21113;-73
2022/01/21 01:07:45;;;;;;;4.92;2.33;;;;;;;-0.72;78.00;100547.52;2832324;84;21049;-73
2022/01/21 01:20:20;;;;;;;3.42;1.40;;;;;;;-0.80;77.06;100521.63;2832356;84;21559;-74
2022/01/21 01:28:37;;;;;;;6.37;3.95;;;;;;;-0.62;77.37;100559.84;2851531;83;21081;-73
2022/01/21 01:32:40;;;;;;;3.98;2.60;;;;;;;-0.74;77.25;100550.62;2816796;84;21523;-74
2022/01/21 01:36:43;;;;;;;4.12;1.82;;;;;;;-0.77;77.53;100565.09;2867601;83;20979;-73
2022/01/21 01:41:06;;;;;;;10.70;3.00;;;;;;;-0.70;77.36;100581.45;2837440;84;21022;-73
2022/01/21 01:49:28;;;;;;;3.15;1.82;;;;;;;-0.91;77.66;100586.41;2837356;84;21026;-73
2022/01/21 01:53:37;;;;;;;3.30;1.27;;;;;;;-0.94;78.38;100573.45;2867025;83;21494;-73
2022/01/21 01:57:39;;;;;;;4.75;1.98;;;;;;;-1.00;78.54;100573.17;2867519;83;21010;-73
2022/01/21 02:01:41;;;;;;;6.42;1.30;;;;;;;-1.10;78.25;100583.45;2867574;83;20978;-73
2022/01/21 02:05:59;;;;;;;5.05;1.92;;;;;;;-1.19;78.81;100568.91;2866998;83;21003;-73
2022/01/21 02:10:01;;;;;;;5.50;2.02;;;;;;;-1.19;78.54;100573.70;2867484;82;21003;-73
2022/01/21 02:14:08;;;;;;;9.53;4.37;;;;;;;-1.25;78.83;100566.05;2867570;83;21014;-73
2022/01/21 02:22:39;;;;;;;4.75;1.45;;;;;;;-1.40;79.18;100579.52;2867575;82;20975;-73
2022/01/21 02:26:53;;;;;;;3.47;1.70;;;;;;;-1.34;79.43;100573.69;2867562;82;20986;-73
2022/01/21 02:31:09;;;;;;;5.27;2.77;;;;;;;-1.43;79.85;100566.09;2881624;82;21416;-73
2022/01/21 02:35:26;;;;;;;5.00;1.53;;;;;;;-1.37;79.70;100562.47;2883323;82;21719;-73
2022/01/21 02:39:27;;;;;;;2.92;2.10;;;;;;;-1.37;79.52;100567.25;2883049;82;20935;-73
2022/01/21 02:43:43;;;;;;;2.80;1.82;;;;;;;-1.39;79.79;100574.23;2882968;82;20998;-73
2022/01/21 02:47:45;;;;;;;6.00;1.42;;;;;;;-1.35;79.66;100568.49;2883072;82;21573;-73
2022/01/21 02:51:47;;;;;;;6.40;1.27;;;;;;;-1.44;80.09;100577.43;2883143;82;20986;-73
2022/01/21 02:55:49;;;;;;;10.00;2.12;;;;;;;-1.46;80.03;100581.84;2883154;82;21006;-74
2022/01/21 02:59:51;;;;;;;4.10;1.85;;;;;;;-1.30;80.05;100577.91;2883302;82;21534;-74
2022/01/21 03:03:53;;;;;;;5.50;1.27;;;;;;;-1.28;80.09;100586.98;2883445;82;21067;-74
2022/01/21 03:07:55;;;;;;;4.12;1.30;;;;;;;-1.23;79.88;100580.34;2885153;82;20995;-73
2022/01/21 03:11:57;;;;;;;8.15;1.70;;;;;;;-1.11;79.63;100590.45;2885716;82;21014;-72
2022/01/21 03:15:59;;;;;;;7.80;1.50;;;;;;;-1.12;79.52;100597.01;2885212;82;21014;-73
2022/01/21 03:20:01;;;;;;;11.43;1.87;;;;;;;-1.12;79.52;100597.01;2883448;82;21055;-73
2022/01/21 03:24:03;;;;;;;1.80;1.00;;;;;;;-1.10;79.67;100593.47;2883397;82;21002;-73
2022/01/21 03:28:04;;;;;;;9.00;2.37;;;;;;;-1.23;79.72;100594.27;2882133;82;21083;-73
2022/01/21 03:32:07;;;;;;;4.65;1.75;;;;;;;-1.28;80.13;100605.73;2868111;83;20991;-73
2022/01/21 03:36:09;;;;;;;4.17;1.75;;;;;;;-1.21;80.16;100604.64;2867990;83;21014;-73
2022/01/21 03:40:12;;;;;;;5.72;1.42;;;;;;;-1.10;80.63;100592.16;2867942;82;21479;-73
2022/01/21 03:44:13;;;;;;;3.22;2.00;;;;;;;-0.94;80.22;100598.26;2867918;83;20995;-73
2022/01/21 03:48:15;;;;;;;1.70;1.30;;;;;;;-0.84;79.37;100600.98;2867832;83;20967;-73
2022/01/21 03:52:17;;;;;;;5.67;2.65;;;;;;;-0.75;78.47;100602.47;2868014;82;20978;-74
2022/01/21 03:56:19;;;;;;;2.20;0.98;;;;;;;-0.72;77.74;100588.88;2867765;83;21030;-73
2022/01/21 04:00:28;;;;;;;1.32;0.80;;;;;;;-0.74;77.82;100590.69;2867671;83;20991;-73
2022/01/21 04:04:30;;;;;;;4.70;2.02;;;;;;;-0.90;77.23;100577.67;2867451;83;21591;-73
2022/01/21 04:08:32;;;;;;;3.05;1.62;;;;;;;-0.98;78.25;100590.95;2867602;83;21550;-74
2022/01/21 04:12:34;;;;;;;8.35;1.42;;;;;;;-0.91;78.56;100607.30;2867612;83;20998;-74
2022/01/21 04:16:35;;;;;;;5.45;1.40;;;;;;;-1.04;79.53;100618.09;2867469;83;21023;-73
2022/01/21 04:20:37;;;;;;;2.58;1.70;;;;;;;-1.04;79.53;100618.09;2867758;83;20987;-73
2022/01/21 04:24:54;;;;;;;9.83;2.50;;;;;;;-0.99;79.48;100626.23;2867399;83;21034;-73
2022/01/21 04:33:05;;;;;;;6.37;2.72;;;;;;;-0.74;79.74;100616.81;2883377;82;21054;-73
2022/01/21 04:37:10;;;;;;;7.08;2.33;;;;;;;-0.55;78.54;100615.39;2883301;82;20982;-72
2022/01/21 04:50:22;;;;;;;8.03;2.22;;;;;;;-0.45;77.58;100625.52;2883456;82;20963;-74
2022/01/21 04:54:37;;;;;;;7.58;1.77;;;;;;;-0.48;77.21;100600.79;2883535;82;20978;-74
2022/01/21 04:58:40;;;;;;;5.50;1.12;;;;;;;-0.58;77.17;100620.28;2883570;82;21037;-73
2022/01/21 05:02:41;;;;;;;3.95;1.60;;;;;;;-0.67;77.38;100595.72;2883648;82;20994;-73
2022/01/21 05:06:43;;;;;;;4.67;2.02;;;;;;;-0.56;77.07;100602.80;2883501;82;21018;-73
2022/01/21 05:10:59;;;;;;;5.10;1.92;;;;;;;-0.64;77.42;100596.92;2883723;82;20982;-73
2022/01/21 05:19:15;;;;;;;5.75;2.08;;;;;;;-0.50;77.15;100615.66;2883544;82;20971;-72
2022/01/21 05:23:12;;;;;;;3.95;2.17;;;;;;;-0.50;77.15;100615.66;2883158;82;20966;-73
2022/01/21 05:27:14;;;;;;;7.22;2.67;;;;;;;-0.46;76.99;100632.12;2883340;82;21057;-74
2022/01/21 05:31:16;;;;;;;6.40;2.92;;;;;;;-0.52;76.90;100622.70;2882934;82;20970;-75
2022/01/21 05:35:17;;;;;;;8.15;2.90;;;;;;;-0.41;76.92;100628.03;2883576;82;21007;-78
2022/01/21 05:39:20;;;;;;;5.55;1.72;;;;;;;-0.31;76.77;100629.48;2883782;82;21022;-75
2022/01/21 05:43:22;;;;;;;2.87;1.90;;;;;;;-0.32;76.28;100623.84;2883005;82;20998;-74
2022/01/21 05:47:23;;;;;;;7.97;3.22;;;;;;;-0.29;75.83;100623.74;2882526;82;20998;-76
2022/01/21 05:51:25;;;;;;;9.23;3.25;;;;;;;-0.32;75.44;100631.69;2882076;82;21037;-75
2022/01/21 05:55:26;;;;;;;5.72;2.05;;;;;;;-0.48;74.99;100640.45;2882609;82;21009;-75
2022/01/21 05:59:28;;;;;;;5.33;2.10;;;;;;;-0.48;74.99;100640.45;2882482;82;20986;-76
2022/01/21 06:03:32;;;;;;;4.40;3.37;;;;;;;-0.45;74.07;100635.97;2882697;82;20958;-76
2022/01/21 06:07:34;;;;;;;5.83;1.85;;;;;;;-0.53;73.22;100617.06;2882470;82;21518;-76
2022/01/21 06:11:36;;;;;;;3.60;2.77;;;;;;;-0.59;72.19;100635.09;2882464;82;21002;-76
2022/01/21 06:15:39;;;;;;;7.08;1.62;;;;;;;-0.59;72.19;100635.09;2882465;82;21002;-76
2022/01/21 06:19:53;;;;;;;3.60;1.17;;;;;;;-0.50;72.82;100635.27;2882364;82;21570;-75
2022/01/21 06:24:08;;;;;;;6.28;2.20;;;;;;;-0.52;72.80;100630.53;2882463;82;20939;-75
2022/01/21 06:28:10;;;;;;;8.63;2.95;;;;;;;-0.52;72.81;100651.45;2882438;82;21538;-76
2022/01/21 06:32:26;;;;;;;5.53;2.05;;;;;;;-0.61;73.16;100647.78;2877155;82;21515;-76
2022/01/21 06:36:28;;;;;;;4.30;1.98;;;;;;;-0.67;73.61;100671.05;2873798;82;21542;-75
2022/01/21 06:40:30;;;;;;;7.80;1.65;;;;;;;-0.83;73.79;100664.55;2873672;82;20980;-76
2022/01/21 06:44:31;;;;;;;2.98;1.50;;;;;;;-0.80;73.69;100683.58;2873683;82;21051;-76
2022/01/21 06:48:33;;;;;;;4.00;2.50;;;;;;;-0.69;73.23;100683.28;2873848;82;20990;-75
2022/01/21 06:52:34;;;;;;;3.62;2.37;;;;;;;-0.69;73.23;100683.28;2873617;82;20998;-76
2022/01/21 06:56:50;;;;;;;3.30;1.30;;;;;;;-0.74;73.00;100679.52;2873878;82;21035;-76
2022/01/21 07:00:51;;;;;;;7.70;2.17;;;;;;;-0.77;73.10;100676.99;2873649;82;20990;-76
2022/01/21 07:04:53;;;;;;;6.03;2.85;;;;;;;-0.79;72.96;100687.06;2873817;82;21010;-75
2022/01/21 07:08:54;;;;;;;7.20;2.37;;;;;;;-0.63;72.86;100691.39;2873760;82;21018;-75
2022/01/21 07:12:57;;;;;;;3.00;1.95;;;;;;;-0.84;72.37;100687.19;2873671;82;20994;-76
2022/01/21 07:16:59;;;;;;;2.92;2.25;;;;;;;-0.84;72.37;100687.19;2873696;82;21002;-75
2022/01/21 07:21:00;;;;;;;2.62;1.87;;;;;;;-0.72;72.49;100706.45;2873721;82;21049;-74
2022/01/21 07:25:03;;;;;;;23.87;4.12;;;;;;;-0.98;72.40;100661.89;2873644;82;20967;-75
2022/01/21 07:29:05;;;;;;;4.17;1.90;;;;;;;-0.89;72.45;100715.20;2873772;82;20994;-75
2022/01/21 07:33:06;;;;;;;2.40;1.42;;;;;;;-0.90;72.72;100699.13;2868591;82;20995;-75
2022/01/21 07:37:08;;;;;;;5.30;2.08;;;;;;;-1.04;72.33;100692.98;2866978;82;21026;-75
2022/01/21 07:41:10;;;;;;;4.67;2.50;;;;;;;-1.01;72.18;100698.11;2866879;83;21487;-76
2022/01/21 07:45:11;;;;;;;9.15;2.40;;;;;;;-0.88;73.09;100697.33;2867219;83;21063;-76
2022/01/21 07:49:13;;;;;;;6.42;2.42;;;;;;;-1.04;72.70;100706.03;2868397;83;20971;-75
2022/01/21 07:53:15;;;;;;;9.38;2.45;;;;;;;-0.91;72.81;100715.70;2868117;82;20987;-75
2022/01/21 07:57:16;;;;;;;5.92;3.35;;;;;;;-0.90;73.10;100697.81;2867259;83;20999;-75
2022/01/21 08:01:18;;;;;;;2.75;2.33;;;;;;;-0.94;72.91;100714.48;2867116;83;20975;-75
2022/01/21 08:05:19;;;;;;;4.58;2.65;;;;;;;-0.97;72.98;100685.38;2866791;81;21579;-73
2022/01/21 08:09:24;;;;;;;4.50;2.77;;;;;;;-0.95;72.85;100716.69;2861783;82;21462;-74
2022/01/21 08:13:27;;;;;;;3.40;2.00;;;;;;;-0.87;72.80;100716.88;2861252;83;20997;-74
2022/01/21 08:17:29;;;;;;;5.78;3.08;;;;;;;-0.86;72.81;100717.72;2861855;83;20990;-73
2022/01/21 08:21:31;;;;;;;10.10;3.27;;;;;;;-0.86;72.16;100707.27;2861673;83;21024;-73
2022/01/21 08:25:46;;;;;;;5.12;2.60;;;;;;;-0.76;71.94;100694.37;2861773;83;21009;-74
2022/01/21 08:30:04;;;;;;;3.10;1.82;;;;;;;-0.58;72.21;100698.67;2861843;82;21442;-74
2022/01/21 08:34:19;;;;;;;10.68;2.77;;;;;;;-0.60;71.26;100715.70;2861643;82;21013;-74
2022/01/21 08:38:21;;;;;;;5.67;4.78;;;;;;;-0.53;71.51;100706.36;2861902;83;20974;-74
2022/01/21 08:42:37;;;;;;;7.20;2.55;;;;;;;-0.60;71.37;100718.74;2862004;83;20969;-73
2022/01/21 08:46:38;;;;;;;3.05;2.25;;;;;;;-0.54;71.63;100743.41;2861728;83;20942;-72
2022/01/21 08:50:40;;;;;;;6.08;3.12;;;;;;;-0.60;70.62;100743.57;2861422;83;21045;-74
2022/01/21 08:54:55;;;;;;;10.20;2.72;;;;;;;-0.58;70.88;100756.17;2861401;83;20965;-74
2022/01/21 08:58:57;;;;;;;6.35;2.62;;;;;;;-0.40;71.39;100765.67;2861940;83;21000;-74
2022/01/21 09:02:58;;;;;;;9.80;3.33;;;;;;;-0.40;71.39;100765.67;2861779;83;20953;-73
2022/01/21 09:07:00;;;;;;;8.18;2.47;;;;;;;-0.20;70.50;100750.27;2861896;83;20977;-74
2022/01/21 09:11:04;;;;;;;4.10;2.30;;;;;;;-0.20;70.50;100750.27;2862075;83;21578;-74
2022/01/21 09:15:08;;;;;;;8.10;2.80;;;;;;;-0.11;70.74;100763.52;2862062;83;21545;-74
2022/01/21 09:19:09;;;;;;;5.45;2.42;;;;;;;0.00;69.53;100778.92;2862018;83;20926;-74
2022/01/21 09:23:11;;;;;;;6.45;3.35;;;;;;;0.00;69.53;100778.92;2861872;83;20970;-74
2022/01/21 09:27:13;;;;;;;9.93;3.35;;;;;;;0.21;69.02;100759.08;2862059;83;20981;-73
2022/01/21 09:31:16;;;;;;;6.17;3.25;;;;;;;0.27;70.37;100782.89;2862014;82;21008;-73
2022/01/21 09:35:17;;;;;;;9.43;3.70;;;;;;;0.29;68.66;100770.62;2861916;83;21509;-73
2022/01/21 09:39:19;;;;;;;53.23;5.83;;;;;;;0.24;68.53;100801.31;2862428;83;21000;-74
2022/01/21 09:43:22;;;;;;;8.38;3.85;;;;;;;0.38;69.22;100774.70;2862216;83;21438;-74
2022/01/21 09:47:25;;;;;;;5.42;3.35;;;;;;;0.39;68.00;100753.73;2862051;83;20950;-73
2022/01/21 09:51:39;;;;;;;11.53;4.20;;;;;;;0.39;68.00;100753.73;2862092;83;20996;-74
2022/01/21 09:55:41;;;;;;;5.30;2.80;;;;;;;0.55;68.70;100788.55;2862086;83;20977;-73
2022/01/21 09:59:43;;;;;;;9.23;2.87;;;;;;;0.48;68.35;100776.58;2862028;83;20973;-74
2022/01/21 10:03:45;;;;;;;5.47;3.17;;;;;;;0.54;67.99;100773.76;2861993;83;21040;-74
2022/01/21 10:07:49;;;;;;;9.10;3.22;;;;;;;0.69;68.30;100766.72;2860874;83;20962;-74
2022/01/21 10:11:54;;;;;;;5.05;2.83;;;;;;;0.64;68.47;100754.23;2861898;83;20969;-73
2022/01/21 10:16:09;;;;;;;9.58;3.27;;;;;;;0.70;68.41;100750.09;2861974;83;21411;-73
2022/01/21 10:20:24;;;;;;;9.75;3.50;;;;;;;0.66;68.09;100740.64;2862213;83;21009;-71
2022/01/21 10:25:01;;;;;;;4.78;3.10;;;;;;;0.67;69.10;100751.52;2862116;83;20997;-74
2022/01/21 10:29:03;;;;;;;4.53;2.87;;;;;;;0.65;69.02;100732.38;2853403;83;20962;-74
2022/01/21 10:33:24;;;;;;;4.97;3.27;;;;;;;0.84;68.40;100752.72;2872009;82;20973;-74
2022/01/21 10:37:35;;;;;;;5.97;2.60;;;;;;;0.95;67.92;100740.09;2881470;82;20964;-73
2022/01/21 10:41:46;;;;;;;4.62;2.67;;;;;;;1.16;67.90;100736.31;2881090;82;20981;-73
2022/01/21 10:45:54;;;;;;;4.58;2.30;;;;;;;1.17;67.98;100718.84;2882723;82;21059;-73
2022/01/21 10:50:13;;;;;;;7.50;2.20;;;;;;;1.27;68.00;100743.80;2884561;81;21538;-72
2022/01/21 10:54:28;;;;;;;5.25;2.60;;;;;;;1.38;68.33;100743.44;2883905;82;20994;-73
2022/01/21 10:58:35;;;;;;;8.65;2.67;;;;;;;1.39;67.44;100736.81;2883829;81;21022;-71
2022/01/21 11:02:48;;;;;;;4.72;1.90;;;;;;;1.37;66.93;100737.77;2883571;82;21591;-72
2022/01/21 11:06:55;;;;;;;6.53;2.27;;;;;;;1.41;66.85;100731.53;2883253;82;20998;-73
2022/01/21 11:10:56;;;;;;;9.78;3.50;;;;;;;1.40;66.57;100729.34;2883993;82;21061;-73
2022/01/21 11:15:01;;;;;;;4.10;1.45;;;;;;;1.46;66.52;100737.89;2832919;84;21589;-72
2022/01/21 11:19:08;;;;;;;4.83;2.57;;;;;;;1.46;66.53;100745.31;2884663;82;20971;-73
2022/01/21 11:23:08;;;;;;;2.90;1.40;;;;;;;1.65;66.95;100746.78;2884013;82;21025;-73
2022/01/21 11:27:17;;;;;;;8.78;2.90;;;;;;;1.70;67.07;100737.45;2883081;82;21094;-73
2022/01/21 11:31:27;;;;;;;3.17;2.25;;;;;;;1.67;64.87;100742.81;2866464;83;23352;-71
2022/01/21 11:35:43;;;;;;;6.72;3.55;;;;;;;1.69;65.60;100748.85;2919843;81;21057;-71
2022/01/21 11:39:45;;;;;;;7.08;2.22;;;;;;;1.83;64.82;100736.52;2919562;81;21083;-72
2022/01/21 11:43:52;;;;;;;5.33;2.25;;;;;;;1.90;65.78;100727.96;2920023;81;21049;-72
2022/01/21 11:52:44;;;;;;;4.78;2.70;;;;;;;2.00;66.18;100728.02;2920172;81;21013;-72
2022/01/21 11:57:04;;;;;;;5.83;3.20;;;;;;;2.00;66.46;100724.08;2917945;81;21000;-72
2022/01/21 12:01:34;;;;;;;6.87;3.10;;;;;;;2.04;66.27;100712.55;2834184;84;21053;-72
2022/01/21 12:05:49;;;;;;;8.08;3.60;;;;;;;2.11;66.70;100730.22;2885968;82;20983;-73
2022/01/21 12:10:14;;;;;;;6.47;3.40;;;;;;;2.27;66.88;100705.52;2834260;84;21483;-73
2022/01/21 12:14:41;;;;;;;3.77;2.33;;;;;;;2.20;66.74;100681.28;2837029;84;21050;-73
2022/01/21 12:23:21;;;;;;;5.42;3.05;;;;;;;2.24;66.94;100678.08;2834650;84;21042;-73
2022/01/21 12:27:25;;;;;;;8.18;3.92;;;;;;;2.24;65.44;100695.14;2886180;82;21535;-73
2022/01/21 12:31:49;;;;;;;14.28;2.60;;;;;;;2.25;66.12;100679.31;2885842;82;21018;-74
2022/01/21 12:35:55;;;;;;;5.85;4.45;;;;;;;2.25;66.10;100678.00;2885084;82;21931;-75
2022/01/21 12:39:52;;;;;;;9.25;3.08;;;;;;;2.19;66.91;100676.11;2832472;84;21081;-76
2022/01/21 12:44:01;;;;;;;6.92;2.58;;;;;;;2.20;66.49;100670.78;2884919;82;20951;-75
2022/01/21 12:48:08;;;;;;;5.17;2.50;;;;;;;2.46;67.70;100674.13;2833701;84;21010;-72
2022/01/21 12:52:24;;;;;;;12.53;5.85;;;;;;;2.50;67.16;100668.26;2879145;81;21045;-72
2022/01/21 12:56:16;;;;;;;15.05;5.58;;;;;;;2.53;66.58;100668.99;2831075;84;21018;-73
2022/01/21 13:00:18;;;;;;;7.15;2.83;;;;;;;2.38;67.75;100668.31;2884801;81;21025;-73
2022/01/21 13:04:37;;;;;;;4.67;2.98;;;;;;;2.32;68.66;100656.29;2871443;83;21047;-75
2022/01/21 13:09:08;;;;;;;14.60;4.72;;;;;;;2.27;68.17;100653.87;2919261;81;21538;-72
2022/01/21 13:17:15;;;;;;;8.65;3.77;;;;;;;2.12;69.13;100638.28;2919036;81;21015;-74
2022/01/21 13:21:16;;;;;;;9.80;4.67;;;;;;;2.16;68.06;100644.71;2919543;81;20992;-73
2022/01/21 13:25:33;;;;;;;5.70;3.70;;;;;;;2.25;69.73;100659.62;2919373;81;21016;-74
2022/01/21 13:29:48;;;;;;;6.92;2.52;;;;;;;2.31;68.59;100641.45;2919784;81;21019;-73
2022/01/21 13:34:17;;;;;;;7.80;3.55;;;;;;;2.24;69.67;100650.05;2922209;80;21531;-73
2022/01/21 13:38:33;;;;;;;3.67;2.17;;;;;;;2.25;69.68;100654.84;2925188;81;21019;-73
2022/01/21 13:42:49;;;;;;;2.60;1.98;;;;;;;2.20;69.25;100643.69;2925235;81;21047;-72
2022/01/21 13:46:50;;;;;;;9.48;2.83;;;;;;;2.12;69.52;100660.59;2925082;81;21031;-73
2022/01/21 13:51:09;;;;;;;12.90;3.47;;;;;;;2.00;70.51;100644.05;2925023;81;20964;-73
2022/01/21 13:55:40;;;;;;;5.80;2.85;;;;;;;2.07;70.59;100657.30;2925155;81;21521;-72
2022/01/21 13:59:44;;;;;;;12.37;3.42;;;;;;;2.08;70.75;100652.45;2925360;81;21004;-73
2022/01/21 14:03:45;;;;;;;6.10;4.03;;;;;;;2.21;70.49;100649.34;2924951;81;20984;-73
2022/01/21 14:07:47;;;;;;;10.72;4.30;;;;;;;2.12;70.60;100656.66;2924655;81;21564;-73
2022/01/21 14:11:49;;;;;;;12.15;3.92;;;;;;;2.12;71.62;100657.97;2925211;80;20999;-73
2022/01/21 14:15:55;;;;;;;7.30;2.92;;;;;;;2.12;71.19;100657.97;2925218;81;21548;-74
2022/01/21 14:20:04;;;;;;;9.80;4.85;;;;;;;2.13;70.61;100687.70;2925248;81;21035;-74
2022/01/21 14:24:15;;;;;;;6.28;3.52;;;;;;;2.11;71.37;100665.44;2924826;81;21031;-73
2022/01/21 14:28:16;;;;;;;127.42;54.85;;;;;;;2.15;71.52;100670.12;2925109;81;21086;-74
2022/01/21 14:32:38;;;;;;;47.93;17.73;;;;;;;2.02;68.00;100688.14;2924382;81;20999;-74
2022/01/21 14:36:40;;;;;;;6.17;3.33;;;;;;;1.99;66.13;100655.46;2919278;81;21012;-73
2022/01/21 14:40:49;;;;;;;7.75;3.65;;;;;;;2.13;66.50;100660.14;2919325;81;21011;-74
2022/01/21 14:44:51;;;;;;;10.70;3.77;;;;;;;2.04;66.65;100667.93;2919270;81;21095;-73
2022/01/21 14:49:00;;;;;;;6.33;1.87;;;;;;;2.03;66.75;100670.60;2919171;81;21059;-74
2022/01/21 14:53:07;;;;;;;8.28;2.00;;;;;;;1.99;66.95;100654.15;2918171;81;20992;-74
2022/01/21 14:57:08;;;;;;;4.20;2.27;;;;;;;1.88;68.28;100664.20;2919380;81;21043;-74
2022/01/21 15:01:11;;;;;;;5.70;1.40;;;;;;;1.78;68.51;100675.08;2919317;81;21011;-73
2022/01/21 15:05:14;;;;;;;4.78;3.05;;;;;;;1.77;67.80;100677.30;2919045;81;21007;-73
2022/01/21 15:09:29;;;;;;;4.87;2.40;;;;;;;1.85;68.88;100670.41;2919132;81;21036;-74
2022/01/21 15:17:53;;;;;;;7.40;2.12;;;;;;;1.85;66.95;100690.95;2919159;81;21027;-73
2022/01/21 15:22:15;;;;;;;6.37;1.55;;;;;;;1.96;68.21;100681.35;2918910;81;21657;-75
2022/01/21 15:26:29;;;;;;;15.68;3.00;;;;;;;1.99;68.19;100686.47;2918836;81;20988;-73
2022/01/21 15:30:31;;;;;;;6.65;3.17;;;;;;;1.94;67.43;100675.76;2919101;81;21024;-73
2022/01/21 15:34:35;;;;;;;7.78;4.60;;;;;;;1.92;67.79;100694.64;2875996;82;21046;-73
2022/01/21 15:38:51;;;;;;;10.40;4.08;;;;;;;1.88;68.79;100691.75;2818193;84;21038;-74
2022/01/21 15:43:05;;;;;;;7.45;3.37;;;;;;;1.74;68.34;100686.57;2838949;84;21585;-74
2022/01/21 15:47:21;;;;;;;6.30;3.08;;;;;;;1.60;67.92;100694.14;2868795;82;21062;-74
2022/01/21 15:51:23;;;;;;;110.68;56.00;;;;;;;1.56;67.84;100696.84;2868781;83;21053;-74
2022/01/21 15:55:24;;;;;;;11.95;4.67;;;;;;;1.60;67.64;100698.07;2868850;83;21002;-74
2022/01/21 15:59:26;;;;;;;15.15;6.00;;;;;;;1.48;69.05;100701.54;2868714;82;20987;-72
2022/01/21 16:03:34;;;;;;;19.07;7.85;;;;;;;1.56;69.81;100713.89;2868633;83;21026;-72
2022/01/21 16:07:31;;;;;;;18.98;7.50;;;;;;;1.52;70.00;100714.92;2867595;83;21006;-72
2022/01/21 16:11:32;;;;;;;8.50;5.95;;;;;;;1.58;69.36;100726.13;2868513;83;21570;-72
2022/01/21 16:15:34;;;;;;;11.50;6.70;;;;;;;1.62;69.54;100717.22;2868935;83;21038;-73
2022/01/21 16:19:38;;;;;;;31.33;15.15;;;;;;;1.68;68.79;100723.09;2869151;82;20994;-72
2022/01/21 16:23:40;;;;;;;32.58;17.02;;;;;;;1.69;69.09;100739.67;2869606;82;20963;-72
2022/01/21 16:27:41;;;;;;;11.53;5.75;;;;;;;1.73;69.08;100741.26;2869394;83;20987;-74
2022/01/21 16:31:48;;;;;;;21.07;8.23;;;;;;;1.68;68.37;100739.27;2869036;83;20983;-74
2022/01/21 16:35:51;;;;;;;21.48;5.03;;;;;;;1.72;68.67;100752.66;2878326;82;21034;-74
2022/01/21 16:39:56;;;;;;;14.20;5.25;;;;;;;1.59;68.28;100744.88;2875921;82;21037;-74
2022/01/21 16:43:56;;;;;;;10.45;3.87;;;;;;;1.60;68.27;100754.45;2876057;82;21546;-74
2022/01/21 16:47:58;;;;;;;8.38;4.42;;;;;;;1.50;68.18;100748.22;2876158;82;20998;-74
2022/01/21 16:52:00;;;;;;;8.35;3.00;;;;;;;1.37;68.28;100735.15;2876239;82;20978;-74
2022/01/21 16:56:01;;;;;;;13.75;3.58;;;;;;;1.37;68.90;100746.50;2876212;82;21014;-74
2022/01/21 17:00:07;;;;;;;5.60;3.65;;;;;;;1.17;70.89;100751.12;2876183;81;21511;-74
2022/01/21 17:04:09;;;;;;;4.78;2.70;;;;;;;1.20;70.17;100754.98;2839784;84;21005;-74
2022/01/21 17:08:11;;;;;;;12.60;3.90;;;;;;;1.12;69.80;100772.72;2877589;82;20987;-73
2022/01/21 17:12:12;;;;;;;13.08;6.03;;;;;;;1.05;70.43;100763.37;2876489;82;21550;-74
2022/01/21 17:16:14;;;;;;;10.98;4.62;;;;;;;1.08;71.52;100776.36;2876555;82;21002;-74
2022/01/21 17:20:17;;;;;;;8.05;5.15;;;;;;;1.08;71.66;100792.08;2876655;82;20982;-74
2022/01/21 17:24:18;;;;;;;9.90;4.55;;;;;;;1.16;71.09;100765.14;2876534;82;21010;-73
2022/01/21 17:28:20;;;;;;;13.60;5.87;;;;;;;1.15;71.24;100779.16;2876595;82;21018;-74
2022/01/21 17:32:21;;;;;;;7.83;4.45;;;;;;;1.23;71.31;100792.00;2876454;82;20971;-74
2022/01/21 17:36:23;;;;;;;9.00;5.45;;;;;;;1.25;70.52;100766.59;2874559;82;21032;-74
2022/01/21 17:40:27;;;;;;;12.07;4.87;;;;;;;1.32;71.07;100766.79;2925482;81;21011;-74
2022/01/21 17:44:30;;;;;;;8.83;4.20;;;;;;;1.18;70.14;100779.52;2891064;82;21002;-71
2022/01/21 17:48:36;;;;;;;14.80;5.67;;;;;;;1.27;70.38;100766.95;2839666;84;20947;-74
2022/01/21 17:52:37;;;;;;;12.78;5.35;;;;;;;1.20;70.76;100774.64;2839493;82;21028;-70
2022/01/21 17:56:38;;;;;;;7.85;4.20;;;;;;;1.19;70.75;100757.64;2891649;82;20994;-71
2022/01/21 18:00:40;;;;;;;7.12;4.00;;;;;;;1.19;71.05;100763.75;2922360;81;21015;-71
2022/01/21 18:04:42;;;;;;;9.35;3.87;;;;;;;1.09;71.45;100780.25;2891928;82;20993;-71
2022/01/21 18:08:52;;;;;;;7.87;3.12;;;;;;;1.11;71.62;100788.04;2922734;81;21007;-71
2022/01/21 18:12:47;;;;;;;10.25;4.03;;;;;;;0.94;71.55;100782.08;2890498;82;21554;-71
2022/01/21 18:16:49;;;;;;;7.20;4.75;;;;;;;0.88;71.61;100773.96;2922851;81;21070;-71
2022/01/21 18:20:51;;;;;;;4.83;2.90;;;;;;;0.87;71.59;100761.77;2891754;82;21034;-73
2022/01/21 18:24:53;;;;;;;5.20;3.55;;;;;;;0.74;71.33;100749.98;2921198;81;21091;-71
2022/01/21 18:28:55;;;;;;;4.47;2.90;;;;;;;0.79;71.24;100759.41;2891019;82;21013;-72
2022/01/21 18:32:56;;;;;;;8.63;3.35;;;;;;;0.87;71.56;100753.05;2839400;84;21085;-71
2022/01/21 18:36:59;;;;;;;8.33;4.05;;;;;;;0.84;71.17;100743.08;2887923;82;20994;-72
2022/01/21 18:41:01;;;;;;;12.58;4.12;;;;;;;0.98;70.86;100730.84;2833133;84;21530;-72
2022/01/21 18:49:14;;;;;;;4.33;3.27;;;;;;;1.03;70.07;100732.44;2865167;81;21012;-72
2022/01/21 18:53:16;;;;;;;6.78;4.00;;;;;;;1.03;70.06;100731.97;2919770;81;21011;-72
2022/01/21 18:57:17;;;;;;;7.47;3.80;;;;;;;1.15;69.77;100737.23;2913572;81;20948;-72
2022/01/21 19:01:22;;;;;;;7.17;2.87;;;;;;;1.28;69.86;100736.36;2869888;83;20986;-72
2022/01/21 19:05:26;;;;;;;9.93;3.87;;;;;;;1.28;70.26;100747.69;2870042;81;20986;-72
2022/01/21 19:09:28;;;;;;;5.50;3.62;;;;;;;1.30;69.57;100756.82;2870152;83;20971;-72
2022/01/21 19:13:30;;;;;;;12.07;5.20;;;;;;;1.23;69.31;100752.69;2870043;83;21002;-72
2022/01/21 19:17:35;;;;;;;9.35;4.90;;;;;;;1.09;69.18;100744.88;2870014;83;21054;-71
2022/01/21 19:21:36;;;;;;;15.15;5.58;;;;;;;1.09;69.12;100737.45;2869831;83;20986;-72
2022/01/21 19:25:52;;;;;;;5.90;3.83;;;;;;;1.14;69.49;100735.52;2869906;83;21397;-71
2022/01/21 19:29:49;;;;;;;8.70;3.90;;;;;;;1.06;69.04;100727.09;2894905;81;21020;-72
2022/01/21 19:33:50;;;;;;;10.30;3.43;;;;;;;1.06;69.71;100716.13;2906438;82;21036;-72
2022/01/21 19:37:52;;;;;;;15.85;5.47;;;;;;;1.05;70.10;100714.89;2908693;81;21076;-72
2022/01/21 19:41:54;;;;;;;8.35;3.85;;;;;;;0.94;69.69;100708.72;2911529;81;21013;-72
2022/01/21 19:46:01;;;;;;;12.13;4.95;;;;;;;0.87;70.01;100712.45;2911467;81;21021;-72
2022/01/21 19:49:59;;;;;;;10.15;4.58;;;;;;;0.87;70.27;100697.60;2911044;81;20981;-72
2022/01/21 19:54:01;;;;;;;13.80;6.45;;;;;;;0.71;70.76;100694.20;2911357;81;20973;-72
2022/01/21 19:58:10;;;;;;;9.35;5.08;;;;;;;0.72;70.87;100689.83;2915902;81;21027;-72
2022/01/21 20:02:39;;;;;;;10.72;4.58;;;;;;;0.56;71.51;100701.25;2924634;81;21040;-72
2022/01/21 20:10:16;;;;;;;3.67;2.62;;;;;;;0.60;72.19;100689.80;2924607;81;21003;-72
2022/01/21 20:14:27;;;;;;;7.85;2.77;;;;;;;0.62;72.33;100689.28;2924851;81;21083;-72
2022/01/21 20:18:22;;;;;;;10.10;2.62;;;;;;;0.64;72.55;100690.09;2924505;81;20952;-72
2022/01/21 20:22:24;;;;;;;5.30;3.20;;;;;;;0.67;72.84;100667.72;2924831;81;21520;-71